createdAt,value
2022-12-31T00:01:28.364Z,25.10
2022-12-31T00:03:56.521Z,27.20
2022-12-31T00:06:30.859Z,31.70
2022-12-31T00:09:00.214Z,24.40
2022-12-31T00:11:29.359Z,26.40
2022-12-31T00:13:58.460Z,26.50
2022-12-31T00:16:29.969Z,27.50
2022-12-31T00:18:59.547Z,23.80
2022-12-31T00:21:29.559Z,25.90
2022-12-31T00:23:57.671Z,31.20
2022-12-31T00:26:28.195Z,28.50
2022-12-31T00:28:57.679Z,29.90
2022-12-31T00:31:29.326Z,29.40
2022-12-31T00:33:57.984Z,29.70
2022-12-31T00:36:34.173Z,28.80
2022-12-31T00:39:03.947Z,32.60
2022-12-31T00:41:32.344Z,26.70
2022-12-31T00:44:00.410Z,31.90
2022-12-31T00:46:28.203Z,30.90
2022-12-31T00:48:55.828Z,29.90
2022-12-31T00:51:24.944Z,27.30
2022-12-31T00:53:55.026Z,30.50
2022-12-31T00:56:25.394Z,28.80
2022-12-31T00:58:53.587Z,27.50
2022-12-31T01:01:33.003Z,30.70
2022-12-31T01:04:04.213Z,29.70
2022-12-31T01:06:32.206Z,27.50
2022-12-31T01:09:00.101Z,24.30
2022-12-31T01:11:27.950Z,27.00
2022-12-31T01:14:00.003Z,30.00
2022-12-31T01:16:39.918Z,27.20
2022-12-31T01:19:10.288Z,28.30
2022-12-31T01:21:40.284Z,29.20
2022-12-31T01:24:09.403Z,27.00
2022-12-31T01:26:38.084Z,31.60
2022-12-31T01:29:07.015Z,30.80
2022-12-31T01:31:35.423Z,40.40
2022-12-31T01:34:04.181Z,44.10
2022-12-31T01:36:33.411Z,37.50
2022-12-31T01:39:02.744Z,43.30
2022-12-31T01:41:33.826Z,38.00
2022-12-31T01:44:13.712Z,44.70
2022-12-31T01:46:51.111Z,34.80
2022-12-31T01:49:38.645Z,36.80
2022-12-31T01:52:30.695Z,32.90
2022-12-31T01:55:23.992Z,35.30
2022-12-31T01:57:57.643Z,32.30
2022-12-31T02:00:25.370Z,37.10
2022-12-31T02:02:53.155Z,33.90
2022-12-31T02:05:50.385Z,37.00
2022-12-31T02:08:18.449Z,40.00
2022-12-31T02:10:46.204Z,37.60
2022-12-31T02:13:14.972Z,39.60
2022-12-31T02:16:34.596Z,34.70
2022-12-31T02:19:10.761Z,33.20
2022-12-31T02:22:07.686Z,39.20
2022-12-31T02:24:51.126Z,37.10
2022-12-31T02:27:36.922Z,32.30
2022-12-31T02:30:09.692Z,41.50
2022-12-31T02:32:39.928Z,30.90
2022-12-31T02:35:13.434Z,37.80
2022-12-31T02:37:46.142Z,34.90
2022-12-31T02:40:19.278Z,33.70
2022-12-31T02:42:53.264Z,38.30
2022-12-31T02:45:32.277Z,37.70
2022-12-31T02:47:59.832Z,36.60
2022-12-31T02:50:42.834Z,47.80
2022-12-31T02:53:32.692Z,35.10
2022-12-31T02:56:10.113Z,37.60
2022-12-31T02:58:41.989Z,39.90
2022-12-31T03:01:10.302Z,42.00
2022-12-31T03:03:38.798Z,38.10
2022-12-31T03:06:08.928Z,35.10
2022-12-31T03:08:36.629Z,34.00
2022-12-31T03:11:04.387Z,38.50
2022-12-31T03:13:31.985Z,32.40
2022-12-31T03:15:59.607Z,31.50
2022-12-31T03:18:27.229Z,31.00
2022-12-31T03:20:54.810Z,36.30
2022-12-31T03:23:25.705Z,32.70
2022-12-31T03:25:53.998Z,40.70
2022-12-31T03:28:24.515Z,43.20
2022-12-31T03:30:56.449Z,33.60
2022-12-31T03:33:25.318Z,41.80
2022-12-31T03:35:53.713Z,35.50
2022-12-31T03:38:21.387Z,34.00
2022-12-31T03:40:52.392Z,33.60
2022-12-31T03:43:20.401Z,32.60
2022-12-31T03:45:52.638Z,32.40
2022-12-31T03:48:23.717Z,30.30
2022-12-31T03:50:52.147Z,32.00
2022-12-31T03:53:20.132Z,32.10
2022-12-31T03:55:54.726Z,31.10
2022-12-31T03:58:22.763Z,37.10
2022-12-31T04:00:50.689Z,38.70
2022-12-31T04:03:18.519Z,41.40
2022-12-31T04:05:53.088Z,38.90
2022-12-31T04:08:20.718Z,38.00
2022-12-31T04:10:48.313Z,35.20
2022-12-31T04:13:15.898Z,38.90
2022-12-31T04:15:43.527Z,36.30
2022-12-31T04:18:11.217Z,36.70
2022-12-31T04:20:38.804Z,38.30
2022-12-31T04:23:06.401Z,32.90
2022-12-31T04:25:34.043Z,38.70
2022-12-31T04:28:01.626Z,41.10
2022-12-31T04:30:29.266Z,34.70
2022-12-31T04:32:56.957Z,36.60
2022-12-31T04:35:24.561Z,37.20
2022-12-31T04:37:52.252Z,34.10
2022-12-31T04:40:19.881Z,30.80
2022-12-31T04:42:47.477Z,34.10
2022-12-31T04:45:15.080Z,33.30
2022-12-31T04:47:42.692Z,31.80
2022-12-31T04:50:10.588Z,31.30
2022-12-31T04:52:42.659Z,33.80
2022-12-31T04:55:10.773Z,31.90
2022-12-31T04:57:38.756Z,33.70
2022-12-31T05:00:07.265Z,30.50
2022-12-31T05:02:35.123Z,32.60
2022-12-31T05:05:03.059Z,29.40
2022-12-31T05:07:30.661Z,35.20
2022-12-31T05:09:58.279Z,34.00
2022-12-31T05:12:25.891Z,31.30
2022-12-31T05:14:53.539Z,31.60
2022-12-31T05:17:21.266Z,33.80
2022-12-31T05:19:48.988Z,30.20
2022-12-31T05:22:16.649Z,31.10
2022-12-31T05:24:44.255Z,27.80
2022-12-31T05:27:11.861Z,31.50
2022-12-31T05:29:39.508Z,29.80
2022-12-31T05:32:07.086Z,26.90
2022-12-31T05:34:34.655Z,30.30
2022-12-31T05:37:02.351Z,32.60
2022-12-31T05:39:29.947Z,27.00
2022-12-31T05:41:57.611Z,31.70
2022-12-31T05:44:25.179Z,31.00
2022-12-31T05:46:52.876Z,31.50
2022-12-31T05:49:20.630Z,28.00
2022-12-31T05:51:48.230Z,28.40
2022-12-31T05:54:15.838Z,28.60
2022-12-31T05:56:43.533Z,30.70
2022-12-31T05:59:11.366Z,32.90
2022-12-31T06:01:39.056Z,30.20
2022-12-31T06:04:06.735Z,33.20
2022-12-31T06:06:34.453Z,38.80
2022-12-31T06:09:02.076Z,34.40
2022-12-31T06:11:29.698Z,35.30
2022-12-31T06:13:57.343Z,35.60
2022-12-31T06:16:25.119Z,36.70
2022-12-31T06:18:52.980Z,39.40
2022-12-31T06:21:22.163Z,109.10
2022-12-31T06:23:49.860Z,74.20
2022-12-31T06:26:17.449Z,46.60
2022-12-31T06:28:45.120Z,31.90
2022-12-31T06:31:14.785Z,29.70
2022-12-31T06:33:42.912Z,34.30
2022-12-31T06:36:13.741Z,35.10
2022-12-31T06:38:43.076Z,36.00
2022-12-31T06:41:13.388Z,28.10
2022-12-31T06:43:42.010Z,26.60
2022-12-31T06:46:15.643Z,34.10
2022-12-31T06:48:44.149Z,28.90
2022-12-31T06:51:17.244Z,27.40
2022-12-31T06:53:46.996Z,32.10
2022-12-31T06:56:16.221Z,30.80
2022-12-31T06:58:44.594Z,31.00
2022-12-31T07:01:37.051Z,31.10
2022-12-31T07:04:26.493Z,27.60
2022-12-31T07:06:59.394Z,28.80
2022-12-31T07:09:35.761Z,27.30
2022-12-31T07:12:19.751Z,30.90
2022-12-31T07:14:54.576Z,34.00
2022-12-31T07:17:28.413Z,30.40
2022-12-31T07:20:11.006Z,27.00
2022-12-31T07:22:39.140Z,30.40
2022-12-31T07:25:07.498Z,32.50
2022-12-31T07:27:53.314Z,31.50
2022-12-31T07:30:22.734Z,38.70
2022-12-31T07:33:26.263Z,34.00
2022-12-31T07:36:00.552Z,44.80
2022-12-31T07:38:48.685Z,41.60
2022-12-31T07:41:39.174Z,39.90
2022-12-31T07:44:45.450Z,38.00
2022-12-31T07:47:22.338Z,32.10
2022-12-31T07:49:50.426Z,30.90
2022-12-31T07:52:18.939Z,32.90
2022-12-31T07:54:46.655Z,33.50
2022-12-31T07:57:16.711Z,31.50
2022-12-31T07:59:47.196Z,33.50
2022-12-31T08:02:50.388Z,32.30
2022-12-31T08:05:31.944Z,28.10
2022-12-31T08:08:07.445Z,28.60
2022-12-31T08:11:00.308Z,28.70
2022-12-31T08:13:28.077Z,31.20
2022-12-31T08:15:55.948Z,29.10
2022-12-31T08:18:23.777Z,29.70
2022-12-31T08:20:57.495Z,28.00
2022-12-31T08:23:31.883Z,31.30
2022-12-31T08:26:36.539Z,26.30
2022-12-31T08:29:17.813Z,22.10
2022-12-31T08:31:48.164Z,28.60
2022-12-31T08:34:39.079Z,28.20
2022-12-31T08:37:13.468Z,29.00
2022-12-31T08:40:05.629Z,31.40
2022-12-31T08:42:51.625Z,27.90
2022-12-31T08:45:28.418Z,31.00
2022-12-31T08:48:22.364Z,34.00
2022-12-31T08:50:50.294Z,31.90
2022-12-31T08:53:18.280Z,29.00
2022-12-31T08:55:49.724Z,26.90
2022-12-31T08:58:39.032Z,34.70
2022-12-31T09:01:08.032Z,36.70
2022-12-31T09:04:11.515Z,27.50
2022-12-31T09:06:56.425Z,28.40
2022-12-31T09:09:24.000Z,32.80
2022-12-31T09:12:06.395Z,31.30
2022-12-31T09:14:49.032Z,37.20
2022-12-31T09:17:34.738Z,34.30
2022-12-31T09:20:02.969Z,31.90
2022-12-31T09:22:30.831Z,33.90
2022-12-31T09:24:59.015Z,28.10
2022-12-31T09:27:55.398Z,36.00
2022-12-31T09:30:23.420Z,36.30
2022-12-31T09:33:12.616Z,36.80
2022-12-31T09:36:07.950Z,35.60
2022-12-31T09:38:48.828Z,37.50
2022-12-31T09:41:37.717Z,39.40
2022-12-31T09:44:48.302Z,34.90
2022-12-31T09:47:18.885Z,36.70
2022-12-31T09:49:49.469Z,42.50
2022-12-31T09:52:42.353Z,38.40
2022-12-31T09:55:28.098Z,36.80
2022-12-31T09:58:05.711Z,39.90
2022-12-31T10:00:50.332Z,39.00
2022-12-31T10:03:18.125Z,40.30
2022-12-31T10:06:17.946Z,39.70
2022-12-31T10:08:54.395Z,35.00
2022-12-31T10:11:57.722Z,34.20
2022-12-31T10:14:57.472Z,30.20
2022-12-31T10:17:28.067Z,31.80
2022-12-31T10:20:23.684Z,34.60
2022-12-31T10:23:25.670Z,37.20
2022-12-31T10:26:19.344Z,31.40
2022-12-31T10:28:59.712Z,34.40
2022-12-31T10:31:30.434Z,31.70
2022-12-31T10:34:24.065Z,26.40
2022-12-31T10:37:01.882Z,33.10
2022-12-31T10:39:40.703Z,33.20
2022-12-31T10:42:26.719Z,34.60
2022-12-31T10:45:22.150Z,35.70
2022-12-31T10:48:15.971Z,35.60
2022-12-31T10:51:07.904Z,32.50
2022-12-31T10:56:21.329Z,33.70
2022-12-31T10:59:23.044Z,35.10
2022-12-31T11:02:01.433Z,30.30
2022-12-31T11:04:57.261Z,27.30
2022-12-31T11:07:43.417Z,28.30
2022-12-31T11:10:30.025Z,30.90
2022-12-31T11:13:35.327Z,32.20
2022-12-31T11:16:23.293Z,32.50
2022-12-31T11:19:15.049Z,27.20
2022-12-31T11:22:01.171Z,26.60
2022-12-31T11:24:40.917Z,33.20
2022-12-31T11:27:14.379Z,29.00
2022-12-31T11:30:03.307Z,30.10
2022-12-31T11:32:47.005Z,27.40
2022-12-31T11:35:33.377Z,27.00
2022-12-31T11:38:13.509Z,29.40
2022-12-31T11:40:43.955Z,29.10
2022-12-31T11:43:22.663Z,30.20
2022-12-31T11:46:16.229Z,29.60
2022-12-31T11:49:04.997Z,29.10
2022-12-31T11:52:02.283Z,30.50
2022-12-31T11:55:17.086Z,31.40
2022-12-31T11:57:50.062Z,31.70
2022-12-31T12:00:22.419Z,29.00
2022-12-31T12:02:53.795Z,37.50
2022-12-31T12:05:26.453Z,32.10
2022-12-31T12:07:54.584Z,31.80
2022-12-31T12:10:35.991Z,33.30
2022-12-31T12:13:31.065Z,33.40
2022-12-31T12:16:01.662Z,26.60
2022-12-31T12:18:29.240Z,32.10
2022-12-31T12:21:08.295Z,33.90
2022-12-31T12:23:36.140Z,34.50
2022-12-31T12:26:03.912Z,35.20
2022-12-31T12:28:44.444Z,32.90
2022-12-31T12:31:22.404Z,30.70
2022-12-31T12:33:51.428Z,28.40
2022-12-31T12:36:20.870Z,36.10
2022-12-31T12:38:48.766Z,32.00
2022-12-31T12:41:22.753Z,33.30
2022-12-31T12:44:01.418Z,31.60
2022-12-31T12:46:47.804Z,32.70
2022-12-31T12:49:39.423Z,30.40
2022-12-31T12:52:16.117Z,31.30
2022-12-31T12:55:05.484Z,29.80
2022-12-31T12:57:41.944Z,30.20
2022-12-31T13:00:32.939Z,28.90
2022-12-31T13:03:06.374Z,29.30
2022-12-31T13:05:58.397Z,28.30
2022-12-31T13:08:58.394Z,29.80
2022-12-31T13:11:40.679Z,28.30
2022-12-31T13:14:31.261Z,25.40
2022-12-31T13:17:22.319Z,28.90
2022-12-31T13:19:55.745Z,27.50
2022-12-31T13:22:29.735Z,29.70
2022-12-31T13:25:15.685Z,30.20
2022-12-31T13:27:49.661Z,25.60
2022-12-31T13:30:20.838Z,25.80
2022-12-31T13:32:55.580Z,29.10
2022-12-31T13:35:28.440Z,28.30
2022-12-31T13:38:14.823Z,27.00
2022-12-31T13:40:56.952Z,27.40
2022-12-31T13:43:50.653Z,28.00
2022-12-31T13:46:30.518Z,32.80
2022-12-31T13:49:05.286Z,29.40
2022-12-31T13:51:41.932Z,24.00
2022-12-31T13:54:43.767Z,29.80
2022-12-31T13:57:40.556Z,26.60
2022-12-31T14:00:35.396Z,27.10
2022-12-31T14:03:21.601Z,31.70
2022-12-31T14:05:49.181Z,29.60
2022-12-31T14:08:16.908Z,30.90
2022-12-31T14:10:50.660Z,30.20
2022-12-31T14:13:34.163Z,25.80
2022-12-31T14:16:05.346Z,30.70
2022-12-31T14:18:41.498Z,35.70
2022-12-31T14:21:22.030Z,34.70
2022-12-31T14:24:04.971Z,34.80
2022-12-31T14:26:32.613Z,45.00
2022-12-31T14:29:12.386Z,28.70
2022-12-31T14:31:49.331Z,31.20
2022-12-31T14:34:36.054Z,29.30
2022-12-31T14:37:09.694Z,30.50
2022-12-31T14:39:54.286Z,36.60
2022-12-31T14:42:45.776Z,39.70
2022-12-31T14:45:46.083Z,35.10
2022-12-31T14:48:44.303Z,36.40
2022-12-31T14:51:12.901Z,38.40
2022-12-31T14:53:51.900Z,36.30
2022-12-31T14:56:45.073Z,36.00
2022-12-31T14:59:29.806Z,33.20
2022-12-31T15:01:58.345Z,31.80
2022-12-31T15:04:42.524Z,35.20
2022-12-31T15:07:21.090Z,36.60
2022-12-31T15:10:14.656Z,36.30
2022-12-31T15:12:46.220Z,35.30
2022-12-31T15:18:35.928Z,35.40
2022-12-31T15:21:31.474Z,35.00
2022-12-31T15:23:59.235Z,36.60
2022-12-31T15:26:31.055Z,43.80
2022-12-31T15:29:02.630Z,36.80
2022-12-31T15:34:03.694Z,45.20
2022-12-31T15:36:51.263Z,56.00
2022-12-31T15:39:30.733Z,71.50
2022-12-31T15:44:59.130Z,56.80
2022-12-31T15:47:35.305Z,55.10
2022-12-31T15:50:14.811Z,55.00
2022-12-31T15:52:46.167Z,44.80
2022-12-31T15:55:27.916Z,44.90
2022-12-31T15:58:00.689Z,47.80
2022-12-31T16:00:43.355Z,43.00
2022-12-31T16:03:22.479Z,49.30
2022-12-31T16:05:51.305Z,56.30
2022-12-31T16:08:30.855Z,45.70
2022-12-31T16:10:59.283Z,41.60
2022-12-31T16:13:29.083Z,48.90
2022-12-31T16:16:04.032Z,66.40
2022-12-31T16:18:43.053Z,39.90
2022-12-31T16:21:37.813Z,37.20
2022-12-31T16:24:23.057Z,43.20
2022-12-31T16:26:55.102Z,43.70
2022-12-31T16:29:23.988Z,41.30
2022-12-31T16:31:53.584Z,44.60
2022-12-31T16:34:27.117Z,46.10
2022-12-31T16:37:00.126Z,47.60
2022-12-31T16:39:27.657Z,49.50
2022-12-31T16:42:13.741Z,43.00
2022-12-31T16:44:41.773Z,43.20
2022-12-31T16:47:18.809Z,44.40
2022-12-31T16:49:49.989Z,35.20
2022-12-31T16:52:39.616Z,37.10
2022-12-31T16:55:16.831Z,37.90
2022-12-31T16:57:49.384Z,40.10
2022-12-31T17:00:27.526Z,40.90
2022-12-31T17:03:31.221Z,41.60
2022-12-31T17:06:08.264Z,43.10
2022-12-31T17:08:54.474Z,44.70
2022-12-31T17:11:30.909Z,43.20
2022-12-31T17:14:07.499Z,36.60
2022-12-31T17:16:38.271Z,44.40
2022-12-31T17:19:06.209Z,40.40
2022-12-31T17:21:34.202Z,41.10
2022-12-31T17:24:05.752Z,41.70
2022-12-31T17:29:05.603Z,37.40
2022-12-31T17:31:39.060Z,41.30
2022-12-31T17:34:12.952Z,43.60
2022-12-31T17:36:52.220Z,43.20
2022-12-31T17:39:23.476Z,38.60
2022-12-31T17:41:55.385Z,47.70
2022-12-31T17:44:28.527Z,41.80
2022-12-31T17:46:56.347Z,41.10
2022-12-31T17:49:30.303Z,43.50
2022-12-31T17:51:58.020Z,42.10
2022-12-31T17:54:25.634Z,43.60
2022-12-31T17:56:53.898Z,44.80
2022-12-31T17:59:24.459Z,43.40
2022-12-31T18:01:52.274Z,47.30
2022-12-31T18:04:20.075Z,41.40
2022-12-31T18:06:49.393Z,42.30
2022-12-31T18:09:17.198Z,43.00
2022-12-31T18:11:45.378Z,43.70
2022-12-31T18:14:16.310Z,43.60
2022-12-31T18:16:44.007Z,47.40
2022-12-31T18:19:37.799Z,46.70
2022-12-31T18:22:03.246Z,45.60
2022-12-31T18:24:30.966Z,40.90
2022-12-31T18:26:58.674Z,45.20
2022-12-31T18:29:26.368Z,41.90
2022-12-31T18:31:54.199Z,46.10
2022-12-31T18:34:21.877Z,43.80
2022-12-31T18:36:49.918Z,47.80
2022-12-31T18:39:17.789Z,48.60
2022-12-31T18:41:48.033Z,45.30
2022-12-31T18:44:16.456Z,50.00
2022-12-31T18:46:44.301Z,49.80
2022-12-31T18:49:12.019Z,42.80
2022-12-31T18:51:39.655Z,48.60
2022-12-31T18:54:11.492Z,51.10
2022-12-31T18:56:44.810Z,52.50
2022-12-31T18:59:14.757Z,55.70
2022-12-31T19:01:42.477Z,55.20
2022-12-31T19:04:16.941Z,53.80
2022-12-31T19:06:48.828Z,56.90
2022-12-31T19:09:43.558Z,58.50
2022-12-31T19:12:04.677Z,56.20
2022-12-31T19:14:32.243Z,55.80
2022-12-31T19:19:26.383Z,56.40
2022-12-31T19:21:54.089Z,57.80
2022-12-31T19:24:24.020Z,84.00
2022-12-31T19:26:52.359Z,59.40
2022-12-31T19:29:22.934Z,66.20
2022-12-31T19:31:50.816Z,70.10
2022-12-31T19:34:18.520Z,63.00
2022-12-31T19:36:46.132Z,67.50
2022-12-31T19:39:16.887Z,63.40
2022-12-31T19:41:45.271Z,59.90
2022-12-31T19:44:17.468Z,64.80
2022-12-31T19:46:45.956Z,65.20
2022-12-31T19:49:14.329Z,61.60
2022-12-31T19:51:42.181Z,57.20
2022-12-31T19:54:13.270Z,65.40
2022-12-31T19:56:43.718Z,62.90
2022-12-31T19:59:11.827Z,57.50
2022-12-31T20:01:39.582Z,65.60
2022-12-31T20:04:07.339Z,75.40
2022-12-31T20:06:35.058Z,81.80
2022-12-31T20:09:03.555Z,75.70
2022-12-31T20:11:31.196Z,74.30
2022-12-31T20:13:58.964Z,62.70
2022-12-31T20:16:29.415Z,108.30
2022-12-31T20:18:57.419Z,83.30
2022-12-31T20:21:27.939Z,83.80
2022-12-31T20:23:55.794Z,75.90
2022-12-31T20:26:25.007Z,105.90
2022-12-31T20:28:53.487Z,98.00
2022-12-31T20:31:24.944Z,95.60
2022-12-31T20:33:54.045Z,96.30
2022-12-31T20:36:22.611Z,106.10
2022-12-31T20:38:50.467Z,89.50
2022-12-31T20:41:21.322Z,93.50
2022-12-31T20:43:49.325Z,95.00
2022-12-31T20:46:22.518Z,88.10
2022-12-31T20:48:52.359Z,77.00
2022-12-31T20:51:21.327Z,82.50
2022-12-31T20:53:51.671Z,89.40
2022-12-31T20:56:19.384Z,84.90
2022-12-31T20:58:47.714Z,84.50
2022-12-31T21:01:17.347Z,82.50
2022-12-31T21:06:35.552Z,74.10
2022-12-31T21:09:06.179Z,73.70
2022-12-31T21:11:34.618Z,69.50
2022-12-31T21:14:02.628Z,61.10
2022-12-31T21:16:30.429Z,60.40
2022-12-31T21:18:58.080Z,60.80
2022-12-31T21:21:25.834Z,61.70
2022-12-31T21:23:53.418Z,62.60
2022-12-31T21:26:21.105Z,59.20
2022-12-31T21:28:48.760Z,52.70
2022-12-31T21:31:16.432Z,56.00
2022-12-31T21:33:45.462Z,63.30
2022-12-31T21:36:13.693Z,61.80
2022-12-31T21:38:41.595Z,57.00
2022-12-31T21:41:10.100Z,53.90
2022-12-31T21:43:37.751Z,46.40
2022-12-31T21:46:07.239Z,50.30
2022-12-31T21:48:34.914Z,54.10
2022-12-31T21:51:13.008Z,56.40
2022-12-31T21:53:40.705Z,55.40
2022-12-31T21:56:09.438Z,52.70
2022-12-31T21:58:39.368Z,51.10
2022-12-31T22:01:07.838Z,49.80
2022-12-31T22:03:36.067Z,57.30
2022-12-31T22:06:06.596Z,59.10
2022-12-31T22:08:34.179Z,58.20
2022-12-31T22:11:02.166Z,58.60
2022-12-31T22:13:29.914Z,60.00
2022-12-31T22:16:04.288Z,57.60
2022-12-31T22:18:35.824Z,61.40
2022-12-31T22:21:17.834Z,61.20
2022-12-31T22:23:51.474Z,64.30
2022-12-31T22:26:22.186Z,61.40
2022-12-31T22:28:50.446Z,68.60
2022-12-31T22:31:21.043Z,65.10
2022-12-31T22:33:49.008Z,67.00
2022-12-31T22:36:18.978Z,62.10
2022-12-31T22:38:47.208Z,57.70
2022-12-31T22:41:18.235Z,53.90
2022-12-31T22:43:49.460Z,66.10
2022-12-31T22:46:21.814Z,69.30
2022-12-31T22:48:51.190Z,61.60
2022-12-31T22:51:19.917Z,59.30
2022-12-31T22:53:47.937Z,67.60
2022-12-31T22:56:17.839Z,73.60
2022-12-31T22:58:46.335Z,78.90
2022-12-31T23:01:20.094Z,80.80
2022-12-31T23:03:49.687Z,87.70
2022-12-31T23:06:18.899Z,93.60
2022-12-31T23:08:46.707Z,106.00
2022-12-31T23:11:14.416Z,108.50
2022-12-31T23:13:49.465Z,99.20
2022-12-31T23:16:19.005Z,109.40
2022-12-31T23:18:46.611Z,109.00
2022-12-31T23:21:15.787Z,122.70
2022-12-31T23:23:43.392Z,117.40
2022-12-31T23:26:10.974Z,127.50
2022-12-31T23:28:38.578Z,137.70
2022-12-31T23:31:06.671Z,206.30
2022-12-31T23:33:34.378Z,189.50
2022-12-31T23:36:06.456Z,167.40
2022-12-31T23:38:34.364Z,156.40
2022-12-31T23:41:12.069Z,159.80
2022-12-31T23:43:39.713Z,127.50
2022-12-31T23:46:07.322Z,146.20
2022-12-31T23:48:34.989Z,119.00
2022-12-31T23:51:02.664Z,135.90
2022-12-31T23:53:30.302Z,111.30
2022-12-31T23:56:23.382Z,122.50
2022-12-31T23:58:55.933Z,118.50
